createdAt,value
2022-10-18T00:00:53.040Z,99490.66
2022-10-18T00:03:19.605Z,99491.81
2022-10-18T00:05:48.029Z,99504.25
2022-10-18T00:08:14.868Z,99489.38
2022-10-18T00:10:41.403Z,99498.06
2022-10-18T00:13:08.064Z,99499.75
2022-10-18T00:15:34.717Z,99511.25
2022-10-18T00:18:01.287Z,99504.13
2022-10-18T00:20:28.863Z,99501.25
2022-10-18T00:22:55.977Z,99499.44
2022-10-18T00:25:22.984Z,99502.09
2022-10-18T00:27:50.349Z,99504.97
2022-10-18T00:30:16.982Z,99506.16
2022-10-18T00:32:43.530Z,99508.59
2022-10-18T00:35:10.361Z,99513.03
2022-10-18T00:37:37.038Z,99519.31
2022-10-18T00:40:04.897Z,99514.84
2022-10-18T00:42:33.878Z,99520.16
2022-10-18T00:45:22.922Z,99505.19
2022-10-18T00:47:55.587Z,99503.50
2022-10-18T00:50:24.760Z,99504.47
2022-10-18T00:52:54.657Z,99501.81
2022-10-18T00:55:21.844Z,99499.16
2022-10-18T00:57:49.814Z,99494.69
2022-10-18T01:00:16.644Z,99499.25
2022-10-18T01:02:44.851Z,99500.13
2022-10-18T01:05:17.443Z,99495.53
2022-10-18T01:07:52.892Z,99485.03
2022-10-18T01:10:25.305Z,99492.16
2022-10-18T01:13:00.960Z,99481.41
2022-10-18T01:15:31.283Z,99490.25
2022-10-18T01:17:57.771Z,99492.75
2022-10-18T01:20:39.727Z,99502.31
2022-10-18T01:23:28.004Z,99497.00
2022-10-18T01:26:13.659Z,99504.88
2022-10-18T01:28:49.513Z,99490.75
2022-10-18T01:31:21.677Z,99484.59
2022-10-18T01:33:53.751Z,99482.50
2022-10-18T01:36:48.619Z,99482.28
2022-10-18T01:39:20.410Z,99467.91
2022-10-18T01:41:49.295Z,99468.78
2022-10-18T01:44:21.225Z,99462.63
2022-10-18T01:46:49.301Z,99469.63
2022-10-18T01:49:15.832Z,99468.28
2022-10-18T01:51:42.394Z,99466.34
2022-10-18T01:54:10.432Z,99467.31
2022-10-18T01:56:59.368Z,99462.00
2022-10-18T01:59:41.376Z,99451.16
2022-10-18T02:02:35.948Z,99454.66
2022-10-18T02:05:40.939Z,99445.84
2022-10-18T02:08:23.193Z,99452.97
2022-10-18T02:10:55.837Z,99448.59
2022-10-18T02:13:26.553Z,99445.00
2022-10-18T02:15:59.165Z,99447.03
2022-10-18T02:18:34.471Z,99450.53
2022-10-18T02:21:04.016Z,99447.03
2022-10-18T02:23:32.683Z,99438.34
2022-10-18T02:25:59.332Z,99443.53
2022-10-18T02:28:26.564Z,99450.84
2022-10-18T02:31:19.585Z,99451.31
2022-10-18T02:34:04.997Z,99451.31
2022-10-18T02:36:34.189Z,99453.72
2022-10-18T02:39:05.053Z,99457.56
2022-10-18T02:41:32.390Z,99459.50
2022-10-18T02:43:58.988Z,99462.78
2022-10-18T02:48:57.107Z,99456.38
2022-10-18T02:51:23.796Z,99465.22
2022-10-18T02:53:50.366Z,99459.91
2022-10-18T02:56:16.903Z,99450.25
2022-10-18T02:58:43.444Z,99446.72
2022-10-18T03:01:10.134Z,99456.38
2022-10-18T03:03:36.746Z,99463.63
2022-10-18T03:06:03.461Z,99469.13
2022-10-18T03:08:30.064Z,99466.50
2022-10-18T03:10:56.609Z,99471.47
2022-10-18T03:13:23.224Z,99473.16
2022-10-18T03:15:49.944Z,99477.59
2022-10-18T03:18:16.573Z,99474.00
2022-10-18T03:20:43.192Z,99474.84
2022-10-18T03:23:09.946Z,99484.75
2022-10-18T03:25:36.530Z,99487.41
2022-10-18T03:28:03.392Z,99484.75
2022-10-18T03:30:29.991Z,99501.94
2022-10-18T03:32:56.616Z,99506.50
2022-10-18T03:35:23.205Z,99511.25
2022-10-18T03:37:49.835Z,99511.47
2022-10-18T03:40:16.634Z,99509.16
2022-10-18T03:42:43.277Z,99498.44
2022-10-18T03:45:10.377Z,99497.59
2022-10-18T03:47:36.948Z,99516.28
2022-10-18T03:50:04.153Z,99517.00
2022-10-18T03:52:31.035Z,99504.38
2022-10-18T03:54:57.869Z,99506.09
2022-10-18T03:57:24.480Z,99509.69
2022-10-18T03:59:51.140Z,99517.53
2022-10-18T04:02:18.430Z,99506.72
2022-10-18T04:04:45.015Z,99500.13
2022-10-18T04:07:11.608Z,99515.63
2022-10-18T04:09:38.140Z,99526.13
2022-10-18T04:12:04.993Z,99515.53
2022-10-18T04:14:31.573Z,99516.38
2022-10-18T04:16:58.291Z,99519.88
2022-10-18T04:19:24.888Z,99520.63
2022-10-18T04:21:51.505Z,99537.59
2022-10-18T04:24:18.082Z,99536.63
2022-10-18T04:26:44.667Z,99541.09
2022-10-18T04:29:12.380Z,99535.78
2022-10-18T04:31:39.592Z,99540.06
2022-10-18T04:34:06.926Z,99536.31
2022-10-18T04:36:34.191Z,99534.53
2022-10-18T04:39:00.761Z,99525.69
2022-10-18T04:41:27.413Z,99522.31
2022-10-18T04:43:54.048Z,99513.31
2022-10-18T04:46:20.620Z,99494.19
2022-10-18T04:48:47.260Z,99499.50
2022-10-18T04:51:13.889Z,99492.19
2022-10-18T04:53:40.476Z,99480.09
2022-10-18T04:56:07.590Z,99470.09
2022-10-18T04:58:34.381Z,99486.22
2022-10-18T05:01:04.359Z,99502.44
2022-10-18T05:03:30.908Z,99507.66
2022-10-18T05:06:02.558Z,99510.22
2022-10-18T05:08:30.686Z,99500.44
2022-10-18T05:10:57.376Z,99505.50
2022-10-18T05:13:24.069Z,99510.31
2022-10-18T05:15:50.953Z,99507.88
2022-10-18T05:18:17.834Z,99520.16
2022-10-18T05:20:44.486Z,99523.34
2022-10-18T05:23:11.108Z,99521.88
2022-10-18T05:25:43.864Z,99524.09
2022-10-18T05:28:11.111Z,99533.63
2022-10-18T05:30:42.555Z,99546.69
2022-10-18T05:33:09.669Z,99549.13
2022-10-18T05:35:36.757Z,99557.81
2022-10-18T05:38:05.759Z,99556.75
2022-10-18T05:40:38.568Z,99558.38
2022-10-18T05:43:05.213Z,99555.41
2022-10-18T05:45:31.753Z,99558.06
2022-10-18T05:47:58.369Z,99556.38
2022-10-18T05:50:24.958Z,99559.88
2022-10-18T05:52:51.509Z,99569.63
2022-10-18T05:55:18.185Z,99568.78
2022-10-18T05:57:49.593Z,99568.78
2022-10-18T06:00:16.432Z,99571.31
2022-10-18T06:02:43.025Z,99571.22
2022-10-18T06:05:09.693Z,99566.88
2022-10-18T06:07:36.254Z,99581.09
2022-10-18T06:10:02.989Z,99573.88
2022-10-18T06:12:29.564Z,99578.97
2022-10-18T06:14:56.170Z,99572.63
2022-10-18T06:17:22.757Z,99584.72
2022-10-18T06:19:49.353Z,99581.09
2022-10-18T06:22:15.994Z,99582.88
2022-10-18T06:24:42.603Z,99583.75
2022-10-18T06:27:09.590Z,99585.44
2022-10-18T06:29:37.610Z,99585.34
2022-10-18T06:32:05.784Z,99589.69
2022-10-18T06:34:33.042Z,99598.63
2022-10-18T06:37:00.181Z,99605.72
2022-10-18T06:39:26.882Z,99599.44
2022-10-18T06:41:53.630Z,99603.59
2022-10-18T06:44:21.097Z,99606.78
2022-10-18T06:46:49.165Z,99592.44
2022-10-18T06:49:18.959Z,99607.31
2022-10-18T06:51:46.534Z,99609.97
2022-10-18T06:54:17.865Z,99614.22
2022-10-18T06:56:45.208Z,99617.63
2022-10-18T06:59:11.790Z,99618.03
2022-10-18T07:01:38.629Z,99619.75
2022-10-18T07:04:05.230Z,99621.44
2022-10-18T07:06:31.870Z,99628.31
2022-10-18T07:08:58.622Z,99620.47
2022-10-18T07:11:27.165Z,99623.00
2022-10-18T07:13:55.533Z,99633.44
2022-10-18T07:16:22.348Z,99626.94
2022-10-18T07:18:51.148Z,99629.38
2022-10-18T07:21:20.473Z,99627.38
2022-10-18T07:23:47.701Z,99632.47
2022-10-18T07:26:27.161Z,99626.09
2022-10-18T07:29:00.573Z,99634.78
2022-10-18T07:31:27.495Z,99625.97
2022-10-18T07:33:54.432Z,99625.97
2022-10-18T07:36:22.239Z,99627.78
2022-10-18T07:38:50.002Z,99636.38
2022-10-18T07:41:16.558Z,99629.91
2022-10-18T07:43:45.931Z,99630.19
2022-10-18T07:46:13.705Z,99638.56
2022-10-18T07:48:40.788Z,99643.44
2022-10-18T07:51:07.741Z,99648.56
2022-10-18T07:53:34.666Z,99651.94
2022-10-18T07:56:07.097Z,99653.28
2022-10-18T07:58:36.332Z,99652.47
2022-10-18T08:01:05.301Z,99658.28
2022-10-18T08:03:32.452Z,99654.50
2022-10-18T08:05:59.597Z,99667.56
2022-10-18T08:08:27.465Z,99668.72
2022-10-18T08:10:54.377Z,99665.66
2022-10-18T08:13:22.367Z,99679.16
2022-10-18T08:15:48.937Z,99677.31
2022-10-18T08:18:15.683Z,99678.19
2022-10-18T08:20:45.805Z,99682.63
2022-10-18T08:23:12.848Z,99678.78
2022-10-18T08:25:39.509Z,99676.53
2022-10-18T08:28:07.068Z,99678.78
2022-10-18T08:30:35.025Z,99681.31
2022-10-18T08:33:02.171Z,99689.34
2022-10-18T08:35:28.806Z,99688.66
2022-10-18T08:37:55.367Z,99694.63
2022-10-18T08:40:22.112Z,99690.75
2022-10-18T08:43:19.338Z,99690.81
2022-10-18T08:45:51.025Z,99688.81
2022-10-18T08:48:30.862Z,99683.03
2022-10-18T08:50:58.463Z,99683.88
2022-10-18T08:53:39.290Z,99686.72
2022-10-18T08:56:18.868Z,99679.97
2022-10-18T08:58:45.546Z,99683.59
2022-10-18T09:01:43.210Z,99686.75
2022-10-18T09:04:33.053Z,99691.84
2022-10-18T09:07:36.799Z,99693.66
2022-10-18T09:10:06.383Z,99700.16
2022-10-18T09:12:57.862Z,99707.19
2022-10-18T09:15:42.531Z,99699.31
2022-10-18T09:18:18.187Z,99696.94
2022-10-18T09:21:05.345Z,99705.31
2022-10-18T09:24:02.163Z,99704.44
2022-10-18T09:26:38.715Z,99707.66
2022-10-18T09:29:43.133Z,99702.50
2022-10-18T09:32:40.674Z,99702.91
2022-10-18T09:35:30.614Z,99711.44
2022-10-18T09:38:04.641Z,99715.66
2022-10-18T09:40:37.081Z,99711.22
2022-10-18T09:43:13.428Z,99718.91
2022-10-18T09:45:42.984Z,99713.31
2022-10-18T09:48:21.662Z,99720.59
2022-10-18T09:51:06.277Z,99716.06
2022-10-18T09:53:40.953Z,99714.66
2022-10-18T09:56:24.196Z,99707.03
2022-10-18T09:58:54.046Z,99710.81
2022-10-18T10:01:29.733Z,99708.72
2022-10-18T10:03:56.644Z,99715.59
2022-10-18T10:06:27.956Z,99721.03
2022-10-18T10:09:06.090Z,99719.00
2022-10-18T10:11:37.923Z,99722.28
2022-10-18T10:16:59.400Z,99717.31
2022-10-18T10:19:33.294Z,99732.66
2022-10-18T10:22:05.265Z,99735.53
2022-10-18T10:24:53.054Z,99729.34
2022-10-18T10:27:43.593Z,99728.72
2022-10-18T10:30:26.641Z,99730.72
2022-10-18T10:32:54.833Z,99727.97
2022-10-18T10:35:53.203Z,99722.75
2022-10-18T10:38:28.898Z,99718.69
2022-10-18T10:40:56.309Z,99717.41
2022-10-18T10:43:43.021Z,99724.88
2022-10-18T10:46:13.600Z,99721.78
2022-10-18T10:49:13.950Z,99727.97
2022-10-18T10:51:43.581Z,99731.13
2022-10-18T10:54:20.785Z,99734.66
2022-10-18T10:57:20.613Z,99740.22
2022-10-18T10:59:52.574Z,99739.88
2022-10-18T11:02:32.619Z,99746.84
2022-10-18T11:05:23.406Z,99744.34
2022-10-18T11:07:57.586Z,99745.41
2022-10-18T11:10:28.215Z,99742.00
2022-10-18T11:13:26.930Z,99741.44
2022-10-18T11:16:00.367Z,99736.00
2022-10-18T11:18:36.830Z,99749.94
2022-10-18T11:21:23.624Z,99741.81
2022-10-18T11:23:50.561Z,99746.06
2022-10-18T11:26:49.969Z,99746.78
2022-10-18T11:29:35.942Z,99750.66
2022-10-18T11:32:24.617Z,99748.94
2022-10-18T11:35:10.282Z,99742.41
2022-10-18T11:37:59.664Z,99747.16
2022-10-18T11:41:04.276Z,99747.03
2022-10-18T11:44:01.096Z,99741.94
2022-10-18T11:46:47.825Z,99746.78
2022-10-18T11:49:52.815Z,99742.28
2022-10-18T11:52:53.313Z,99742.78
2022-10-18T11:55:37.967Z,99731.50
2022-10-18T11:58:33.955Z,99733.25
2022-10-18T12:01:15.922Z,99729.84
2022-10-18T12:03:57.889Z,99728.78
2022-10-18T12:06:30.687Z,99717.50
2022-10-18T12:09:04.726Z,99717.63
2022-10-18T12:11:46.886Z,99719.72
2022-10-18T12:14:27.878Z,99720.19
2022-10-18T12:17:27.934Z,99713.78
2022-10-18T12:19:47.130Z,99709.41
2022-10-18T12:22:21.228Z,99714.50
2022-10-18T12:24:47.800Z,99710.38
2022-10-18T12:27:16.602Z,99712.81
2022-10-18T12:29:50.397Z,99704.59
2022-10-18T12:32:24.709Z,99695.66
2022-10-18T12:34:59.796Z,99702.38
2022-10-18T12:37:50.389Z,99699.47
2022-10-18T12:40:23.157Z,99700.00
2022-10-18T12:42:52.282Z,99703.13
2022-10-18T12:45:24.838Z,99704.97
2022-10-18T12:47:52.369Z,99694.59
2022-10-18T12:50:42.072Z,99698.66
2022-10-18T12:53:24.149Z,99704.97
2022-10-18T12:55:52.622Z,99696.44
2022-10-18T12:58:28.427Z,99698.97
2022-10-18T13:00:57.897Z,99693.09
2022-10-18T13:03:27.381Z,99694.53
2022-10-18T13:05:56.680Z,99691.34
2022-10-18T13:08:30.186Z,99694.84
2022-10-18T13:11:09.026Z,99700.72
2022-10-18T13:13:40.683Z,99706.25
2022-10-18T13:16:22.620Z,99706.44
2022-10-18T13:18:57.754Z,99698.97
2022-10-18T13:21:33.606Z,99698.88
2022-10-18T13:24:02.934Z,99700.47
2022-10-18T13:26:38.471Z,99703.47
2022-10-18T13:29:09.573Z,99709.16
2022-10-18T13:31:51.799Z,99701.06
2022-10-18T13:34:22.458Z,99704.69
2022-10-18T13:37:15.785Z,99702.13
2022-10-18T13:39:42.648Z,99705.78
2022-10-18T13:42:15.214Z,99710.13
2022-10-18T13:44:44.654Z,99712.78
2022-10-18T13:47:31.995Z,99706.38
2022-10-18T13:50:29.940Z,99710.50
2022-10-18T13:53:22.374Z,99709.41
2022-10-18T13:56:20.686Z,99705.44
2022-10-18T13:59:15.986Z,99708.81
2022-10-18T14:02:10.243Z,99706.97
2022-10-18T14:05:24.983Z,99704.09
2022-10-18T14:07:58.113Z,99709.19
2022-10-18T14:10:50.126Z,99708.94
2022-10-18T14:13:27.969Z,99702.53
2022-10-18T14:15:59.685Z,99707.84
2022-10-18T14:18:34.298Z,99706.38
2022-10-18T14:21:14.052Z,99712.09
2022-10-18T14:23:44.767Z,99718.75
2022-10-18T14:26:20.588Z,99709.28
2022-10-18T14:29:04.306Z,99711.81
2022-10-18T14:31:31.082Z,99714.97
2022-10-18T14:33:59.015Z,99717.50
2022-10-18T14:36:40.909Z,99710.47
2022-10-18T14:39:17.107Z,99714.84
2022-10-18T14:41:55.304Z,99715.56
2022-10-18T14:44:30.555Z,99713.75
2022-10-18T14:47:13.951Z,99706.59
2022-10-18T14:49:45.110Z,99712.56
2022-10-18T14:52:24.052Z,99717.75
2022-10-18T14:54:55.545Z,99706.13
2022-10-18T14:57:34.939Z,99703.34
2022-10-18T15:00:07.932Z,99708.69
2022-10-18T15:02:37.494Z,99707.69
2022-10-18T15:05:17.298Z,99707.69
2022-10-18T15:10:35.480Z,99697.41
2022-10-18T15:13:09.688Z,99701.16
2022-10-18T15:15:38.053Z,99706.50
2022-10-18T15:18:06.537Z,99703.13
2022-10-18T15:20:39.518Z,99704.88
2022-10-18T15:23:32.402Z,99702.47
2022-10-18T15:26:06.454Z,99704.06
2022-10-18T15:28:51.187Z,99701.16
2022-10-18T15:31:23.839Z,99706.38
2022-10-18T15:33:50.714Z,99696.53
2022-10-18T15:36:27.173Z,99702.13
2022-10-18T15:38:54.472Z,99690.84
2022-10-18T15:41:38.849Z,99699.69
2022-10-18T15:44:32.158Z,99692.66
2022-10-18T15:47:13.828Z,99694.72
2022-10-18T15:49:46.528Z,99693.75
2022-10-18T15:52:22.108Z,99696.31
2022-10-18T15:57:20.792Z,99699.41
2022-10-18T16:00:18.275Z,99683.81
2022-10-18T16:02:45.254Z,99680.53
2022-10-18T16:05:19.035Z,99685.97
2022-10-18T16:07:46.492Z,99689.72
2022-10-18T16:10:14.515Z,99684.63
2022-10-18T16:12:41.472Z,99681.22
2022-10-18T16:15:08.620Z,99690.38
2022-10-18T16:17:35.510Z,99684.44
2022-10-18T16:20:02.219Z,99678.63
2022-10-18T16:22:30.262Z,99679.81
2022-10-18T16:24:58.832Z,99678.38
2022-10-18T16:27:25.888Z,99671.16
2022-10-18T16:29:52.420Z,99677.81
2022-10-18T16:32:18.961Z,99675.59
2022-10-18T16:34:45.584Z,99683.81
2022-10-18T16:37:12.122Z,99680.75
2022-10-18T16:39:38.684Z,99684.63
2022-10-18T16:42:05.562Z,99694.75
2022-10-18T16:44:32.176Z,99690.00
2022-10-18T16:46:58.771Z,99694.78
2022-10-18T16:49:26.326Z,99689.91
2022-10-18T16:51:54.476Z,99695.69
2022-10-18T16:54:21.359Z,99699.50
2022-10-18T16:56:50.143Z,99705.28
2022-10-18T16:59:29.127Z,99705.19
2022-10-18T17:01:55.989Z,99709.44
2022-10-18T17:04:22.665Z,99710.72
2022-10-18T17:06:49.534Z,99712.84
2022-10-18T17:09:16.317Z,99727.19
2022-10-18T17:11:43.072Z,99724.00
2022-10-18T17:14:09.716Z,99726.03
2022-10-18T17:16:38.999Z,99736.94
2022-10-18T17:19:08.307Z,99725.81
2022-10-18T17:21:35.281Z,99729.63
2022-10-18T17:24:03.178Z,99727.28
2022-10-18T17:26:30.552Z,99723.47
2022-10-18T17:29:00.283Z,99722.81
2022-10-18T17:31:28.269Z,99730.34
2022-10-18T17:33:55.417Z,99730.03
2022-10-18T17:36:22.409Z,99734.97
2022-10-18T17:38:54.533Z,99739.66
2022-10-18T17:41:21.337Z,99739.09
2022-10-18T17:43:48.581Z,99741.97
2022-10-18T17:46:16.125Z,99738.78
2022-10-18T17:48:43.027Z,99735.38
2022-10-18T17:51:15.398Z,99743.44
2022-10-18T17:53:42.071Z,99741.06
2022-10-18T17:56:10.574Z,99746.50
2022-10-18T17:58:37.419Z,99746.75
2022-10-18T18:01:16.502Z,99743.34
2022-10-18T18:03:43.231Z,99753.09
2022-10-18T18:06:21.732Z,99754.16
2022-10-18T18:08:49.356Z,99748.22
2022-10-18T18:11:17.007Z,99748.41
2022-10-18T18:13:43.681Z,99753.72
2022-10-18T18:16:15.516Z,99754.66
2022-10-18T18:18:42.894Z,99744.06
2022-10-18T18:21:09.522Z,99749.38
2022-10-18T18:23:36.152Z,99745.75
2022-10-18T18:26:03.016Z,99745.84
2022-10-18T18:28:29.628Z,99752.03
2022-10-18T18:30:56.868Z,99750.31
2022-10-18T18:33:23.477Z,99743.31
2022-10-18T18:35:59.564Z,99744.25
2022-10-18T18:38:26.859Z,99746.13
2022-10-18T18:41:12.052Z,99740.84
2022-10-18T18:43:40.634Z,99737.56
2022-10-18T18:46:08.422Z,99744.72
2022-10-18T18:48:35.936Z,99736.97
2022-10-18T18:51:04.746Z,99733.69
2022-10-18T18:53:31.748Z,99733.13
2022-10-18T18:56:02.929Z,99734.19
2022-10-18T18:58:29.485Z,99739.78
2022-10-18T19:00:56.125Z,99744.41
2022-10-18T19:03:22.740Z,99748.22
2022-10-18T19:05:49.375Z,99747.47
2022-10-18T19:08:15.908Z,99746.72
2022-10-18T19:10:42.578Z,99752.19
2022-10-18T19:13:09.121Z,99749.66
2022-10-18T19:15:35.660Z,99748.69
2022-10-18T19:18:02.321Z,99746.06
2022-10-18T19:20:28.853Z,99740.84
2022-10-18T19:22:55.455Z,99745.38
2022-10-18T19:25:24.754Z,99738.38
2022-10-18T19:27:53.606Z,99736.81
2022-10-18T19:30:20.286Z,99726.56
2022-10-18T19:32:46.928Z,99727.63
2022-10-18T19:35:13.534Z,99730.44
2022-10-18T19:37:40.765Z,99732.47
2022-10-18T19:40:07.847Z,99733.69
2022-10-18T19:42:35.993Z,99729.53
2022-10-18T19:45:03.245Z,99725.16
2022-10-18T19:47:30.013Z,99722.81
2022-10-18T19:49:56.810Z,99736.25
2022-10-18T19:52:23.415Z,99739.94
2022-10-18T19:54:50.065Z,99735.78
2022-10-18T19:57:16.633Z,99744.81
2022-10-18T19:59:44.338Z,99738.00
2022-10-18T20:02:15.253Z,99738.22
2022-10-18T20:04:42.020Z,99739.06
2022-10-18T20:07:08.845Z,99729.50
2022-10-18T20:09:35.551Z,99732.91
2022-10-18T20:12:02.146Z,99734.69
2022-10-18T20:14:28.790Z,99734.06
2022-10-18T20:16:55.367Z,99733.38
2022-10-18T20:19:21.955Z,99732.44
2022-10-18T20:21:48.512Z,99731.50
2022-10-18T20:24:15.076Z,99731.59
2022-10-18T20:26:43.426Z,99739.03
2022-10-18T20:29:10.098Z,99726.06
2022-10-18T20:31:38.925Z,99724.34
2022-10-18T20:34:08.392Z,99720.97
2022-10-18T20:36:35.463Z,99722.75
2022-10-18T20:39:03.508Z,99719.91
2022-10-18T20:41:33.732Z,99720.34
2022-10-18T20:44:02.850Z,99718.25
2022-10-18T20:46:34.853Z,99709.81
2022-10-18T20:49:02.336Z,99720.13
2022-10-18T20:51:29.000Z,99712.38
2022-10-18T20:53:56.142Z,99717.28
2022-10-18T20:56:31.439Z,99716.47
2022-10-18T20:58:58.423Z,99717.38
2022-10-18T21:01:30.640Z,99713.97
2022-10-18T21:03:59.831Z,99720.31
2022-10-18T21:06:32.205Z,99720.50
2022-10-18T21:09:01.255Z,99717.94
2022-10-18T21:11:30.127Z,99718.28
2022-10-18T21:14:02.715Z,99718.44
2022-10-18T21:16:30.993Z,99719.50
2022-10-18T21:19:05.538Z,99708.94
2022-10-18T21:21:32.111Z,99702.81
2022-10-18T21:24:02.404Z,99702.13
2022-10-18T21:26:32.151Z,99699.75
2022-10-18T21:29:00.017Z,99702.00
2022-10-18T21:31:29.541Z,99699.69
2022-10-18T21:34:00.836Z,99698.16
2022-10-18T21:36:31.484Z,99696.81
2022-10-18T21:38:58.430Z,99700.41
2022-10-18T21:41:25.267Z,99695.19
2022-10-18T21:43:54.133Z,99699.00
2022-10-18T21:46:22.367Z,99694.66
2022-10-18T21:48:51.559Z,99698.34
2022-10-18T21:51:19.832Z,99696.72
2022-10-18T21:53:48.853Z,99702.19
2022-10-18T21:56:29.928Z,99692.97
2022-10-18T21:58:56.872Z,99692.97
2022-10-18T22:01:32.358Z,99693.81
2022-10-18T22:04:01.281Z,99691.19
2022-10-18T22:06:33.210Z,99680.72
2022-10-18T22:09:02.368Z,99686.09
2022-10-18T22:11:35.231Z,99683.56
2022-10-18T22:14:02.074Z,99684.75
2022-10-18T22:16:28.653Z,99680.34
2022-10-18T22:19:00.875Z,99680.59
2022-10-18T22:21:28.406Z,99682.69
2022-10-18T22:23:59.541Z,99684.47
2022-10-18T22:26:32.181Z,99686.34
2022-10-18T22:29:07.829Z,99688.56
2022-10-18T22:31:36.597Z,99699.88
2022-10-18T22:34:06.569Z,99703.53
2022-10-18T22:36:34.348Z,99698.44
2022-10-18T22:39:01.674Z,99709.69
2022-10-18T22:41:28.485Z,99698.25
2022-10-18T22:43:57.311Z,99703.53
2022-10-18T22:46:26.317Z,99700.06
2022-10-18T22:48:53.204Z,99696.56
2022-10-18T22:51:21.013Z,99697.50
2022-10-18T22:53:47.591Z,99699.28
2022-10-18T22:56:17.657Z,99695.84
2022-10-18T22:58:44.257Z,99694.25
2022-10-18T23:01:14.218Z,99694.44
2022-10-18T23:03:40.902Z,99686.75
2022-10-18T23:06:20.818Z,99687.84
2022-10-18T23:08:47.789Z,99696.78
2022-10-18T23:11:15.208Z,99689.09
2022-10-18T23:13:41.889Z,99692.66
2022-10-18T23:16:08.658Z,99685.78
2022-10-18T23:18:35.472Z,99685.84
2022-10-18T23:21:08.057Z,99686.94
2022-10-18T23:23:36.317Z,99679.28
2022-10-18T23:26:13.941Z,99680.50
2022-10-18T23:28:45.622Z,99673.53
2022-10-18T23:31:13.698Z,99668.34
2022-10-18T23:33:41.040Z,99678.91
2022-10-18T23:36:08.636Z,99673.03
2022-10-18T23:38:36.629Z,99676.56
2022-10-18T23:41:03.967Z,99674.84
2022-10-18T23:43:30.549Z,99671.53
2022-10-18T23:45:57.144Z,99667.09
2022-10-18T23:48:23.881Z,99670.63
2022-10-18T23:50:50.495Z,99670.69
2022-10-18T23:53:19.574Z,99673.31
2022-10-18T23:55:56.828Z,99673.41
2022-10-18T23:58:24.268Z,99669.13
